Latest Weather Observations for Hamilton Island

IDQ60801

Issued at 6:32 am EST Sunday 25 June 2017 (issued every 30 minutes, with the page automatically refreshed every 10 minutes)

About weather observations | Map of weather stations | Latest weather observations for QLD | Other Formats
Station Details ID: 033106 Name: HAMILTON ISLAND AIRPORT Lat: -20.37 Lon: 148.95 Height: 58.66 m
Data from the previous 72 hours. | See also: Recent months at Hamilton Island
Date/Time
EST
Temp
°C
App
Temp
°C
Dew
Point
°C
Rel
Hum
%
Delta-T
°C
Wind Press
QNH
hPa
Press
MSL
hPa
Rain since
9am
mm
Dir  Spd
km/h
Gust
km/h
Spd
kts
Gust
kts
25/06:30am 19.5 17.7 16.0 80 2.1 S 20 26 11 14 1017.5 1017.3 0.0
25/06:00am 19.4 17.7 15.7 79 2.2 SSE 19 26 10 14 1017.3 1017.1 0.0
25/05:30am 19.4 17.6 15.9 80 2.1 S 20 26 11 14 1017.1 1016.9 0.0
25/05:00am 19.2 17.3 15.7 80 2.1 S 20 24 11 13 1016.8 1016.6 0.0
25/04:30am 19.4 17.2 15.9 80 2.1 SSE 22 26 12 14 1016.7 1016.5 0.0
25/04:00am 19.2 17.4 15.9 81 2.0 S 20 24 11 13 1016.8 1016.6 0.0
25/03:30am 19.5 17.8 16.2 81 2.0 S 20 26 11 14 1016.9 1016.7 0.0
25/03:00am 19.6 17.9 16.3 81 2.0 S 20 28 11 15 1017.2 1017.0 0.0
25/02:30am 19.7 18.0 16.3 81 2.0 S 20 28 11 15 1017.6 1017.4 0.0
25/02:00am 19.9 18.4 16.7 82 1.9 SSE 20 26 11 14 1017.7 1017.5 0.0
25/01:30am 20.0 19.1 16.8 82 1.9 SSE 17 22 9 12 1017.9 1017.7 0.0
25/01:00am 20.0 19.2 17.0 83 1.8 SSE 17 20 9 11 1018.0 1017.8 0.0
25/12:30am 20.7 19.9 17.1 80 2.2 SSE 17 20 9 11 1018.1 1017.9 0.0
25/12:00am 20.8 20.0 16.2 75 2.8 SSE 15 17 8 9 1018.1 1017.9 0.0
 
Date/Time
EST
Temp
°C
App
Temp
°C
Dew
Point
°C
Rel
Hum
%
Delta-T
°C
Wind Press
QNH
hPa
Press
MSL
hPa
Rain since
9am
mm
Dir  Spd
km/h
Gust
km/h
Spd
kts
Gust
kts
24/11:30pm 21.1 19.3 15.6 71 3.3 SE 19 20 10 11 1018.5 1018.3 0.0
24/11:00pm 21.3 19.2 15.2 68 3.6 ESE 20 24 11 13 1018.5 1018.3 0.0
24/10:30pm 21.0 19.0 14.9 68 3.6 ESE 19 20 10 11 1018.5 1018.3 0.0
24/10:00pm 20.9 18.0 15.2 70 3.4 ESE 24 28 13 15 1018.5 1018.3 0.0
24/09:30pm 20.8 18.5 15.8 73 3.0 ESE 22 26 12 14 1018.2 1018.1 0.0
24/09:00pm 20.8 18.6 14.5 67 3.7 ESE 19 20 10 11 1018.0 1017.8 0.0
24/08:30pm 20.7 19.4 15.7 73 3.0 SE 17 20 9 11 1018.0 1017.8 0.0
24/08:00pm 20.6 18.4 14.3 67 3.7 ESE 19 20 10 11 1018.0 1017.8 0.0
24/07:30pm 20.9 18.0 15.0 69 3.5 ESE 24 26 13 14 1017.9 1017.7 0.0
24/07:00pm 20.9 18.1 15.4 71 3.3 ESE 24 28 13 15 1017.7 1017.5 0.0
24/06:30pm 20.6 18.8 15.4 72 3.1 ESE 19 20 10 11 1017.5 1017.3 0.0
24/06:00pm 20.6 18.8 15.4 72 3.1 ESE 19 20 10 11 1017.4 1017.2 0.0
24/05:30pm 20.6 18.5 14.7 69 3.5 SE 19 24 10 13 1017.1 1016.9 0.0
24/05:00pm 20.9 19.2 14.8 68 3.6 ESE 17 19 9 10 1016.8 1016.6 0.0
24/04:30pm 20.9 18.4 14.1 65 4.0 SE 20 22 11 12 1016.6 1016.4 0.0
24/04:00pm 21.5 18.8 14.6 65 4.1 SE 22 26 12 14 1016.6 1016.4 0.0
24/03:30pm 21.7 18.6 15.5 68 3.7 SE 26 28 14 15 1016.5 1016.3 0.0
24/03:00pm 21.8 18.1 15.9 69 3.5 SE 30 33 16 18 1016.7 1016.5 0.0
24/02:30pm 22.0 17.7 15.8 68 3.7 SSE 33 35 18 19 1016.9 1016.7 0.0
24/02:00pm 22.1 18.1 16.1 69 3.6 SSE 32 35 17 19 1016.9 1016.7 0.0
24/01:30pm 22.3 18.1 16.1 68 3.8 SE 33 37 18 20 1017.0 1016.8 0.0
24/01:00pm 22.2 17.7 16.5 70 3.5 SSE 35 39 19 21 1017.0 1016.8 0.0
24/12:30pm 21.8 16.9 17.2 75 2.8 SSE 39 43 21 23 1017.5 1017.3 0.0
24/12:00pm 21.4 16.7 16.8 75 2.8 SSE 37 43 20 23 1017.8 1017.6 0.0
24/11:30am 21.1 16.4 17.7 81 2.1 SSE 39 44 21 24 1018.1 1017.9 0.0
24/11:00am 21.1 17.4 17.5 80 2.2 SSE 33 41 18 22 1018.3 1018.2 0.0
24/10:30am 20.7 17.4 17.1 80 2.2 SSE 30 37 16 20 1018.6 1018.4 0.0
24/10:00am 20.5 16.9 17.3 82 2.0 SSE 32 37 17 20 1018.7 1018.5 0.0
24/09:30am 20.4 17.6 17.2 82 2.0 SSE 28 35 15 19 1018.8 1018.6 0.0
24/09:00am 20.2 18.2 17.4 84 1.7 SSE 24 33 13 18 1018.6 1018.4 0.2
24/08:30am 20.1 18.1 17.3 84 1.7 S 24 30 13 16 1018.5 1018.3 0.2
24/08:00am 20.0 17.7 17.6 86 1.5 SSE 26 32 14 17 1018.0 1017.8 0.2
24/07:30am 19.8 18.3 17.8 88 1.2 S 22 30 12 16 1017.8 1017.6 0.2
24/07:00am 19.7 17.9 17.8 89 1.2 S 24 30 13 16 1017.4 1017.2 0.2
24/06:30am 19.6 17.7 17.7 89 1.2 S 24 30 13 16 1017.1 1016.9 0.2
24/06:00am 19.7 17.9 17.8 89 1.2 SSE 24 33 13 18 1016.8 1016.6 0.2
24/05:30am 19.6 17.0 17.9 90 1.0 S 28 32 15 17 1016.5 1016.3 0.2
24/05:00am 19.9 18.3 18.4 91 0.9 S 24 32 13 17 1016.4 1016.2 0.2
24/04:30am 19.8 18.1 18.1 90 1.1 S 24 32 13 17 1016.3 1016.1 0.2
24/04:00am 19.7 17.7 18.4 92 0.8 S 26 32 14 17 1016.4 1016.2 0.2
24/03:30am 19.9 18.3 18.4 91 0.9 S 24 30 13 16 1016.7 1016.5 0.2
24/03:00am 20.3 18.4 18.6 90 1.1 SSE 26 32 14 17 1017.1 1016.9 0.2
24/02:30am 20.3 17.7 18.6 90 1.1 SSE 30 37 16 20 1017.5 1017.3 0.2
24/02:00am 20.2 17.6 18.7 91 0.9 SSE 30 39 16 21 1017.6 1017.4 0.2
24/01:30am 20.1 17.5 18.6 91 0.9 S 30 39 16 21 1018.0 1017.8 0.2
24/01:00am 20.2 17.0 18.5 90 1.1 SSE 33 41 18 22 1018.2 1018.1 0.2
24/12:30am 20.3 17.4 18.8 91 0.9 SSE 32 41 17 22 1018.6 1018.4 0.2
24/12:00am 20.2 18.4 18.7 91 0.9 S 26 35 14 19 1018.9 1018.7 0.2
 
Date/Time
EST
Temp
°C
App
Temp
°C
Dew
Point
°C
Rel
Hum
%
Delta-T
°C
Wind Press
QNH
hPa
Press
MSL
hPa
Rain since
9am
mm
Dir  Spd
km/h
Gust
km/h
Spd
kts
Gust
kts
23/11:30pm 20.3 18.1 18.8 91 0.9 S 28 33 15 18 1019.1 1018.9 0.2
23/11:00pm 20.3 18.1 18.8 91 0.9 SSE 28 35 15 19 1019.4 1019.2 0.2
23/10:30pm 20.4 18.3 18.9 91 0.9 S 28 32 15 17 1019.7 1019.5 0.2
23/10:00pm 20.5 19.1 18.8 90 1.1 S 24 30 13 16 1019.9 1019.7 0.2
23/09:30pm 20.7 19.7 18.8 89 1.2 SSE 22 30 12 16 1019.9 1019.7 0.2
23/09:00pm 20.6 19.4 18.5 88 1.3 S 22 26 12 14 1019.6 1019.4 0.2
23/08:30pm 20.6 19.0 18.4 87 1.4 SSE 24 30 13 16 1019.5 1019.3 0.2
23/08:00pm 20.8 18.4 18.2 85 1.6 SSE 28 33 15 18 1019.4 1019.2 0.2
23/07:30pm 20.7 18.3 18.3 86 1.5 SSE 28 33 15 18 1019.1 1018.9 0.2
23/07:00pm 20.7 18.1 17.7 83 1.8 SSE 28 33 15 18 1018.8 1018.6 0.2
23/06:30pm 20.7 19.8 18.1 85 1.6 SSE 20 26 11 14 1018.6 1018.4 0.2
23/06:00pm 20.5 20.0 17.7 84 1.7 SSE 17 20 9 11 1018.5 1018.3 0.2
23/05:30pm 20.5 19.4 17.3 82 2.0 SSE 19 24 10 13 1018.3 1018.2 0.2
23/05:00pm 20.6 17.8 17.2 81 2.1 SSE 28 32 15 17 1018.2 1018.1 0.2
23/04:30pm 20.3 17.9 17.3 83 1.8 SE 26 32 14 17 1018.2 1018.1 0.2
23/04:00pm 20.6 17.2 17.8 84 1.7 SE 32 35 17 19 1018.0 1017.8 0.2
23/03:30pm 20.6 16.7 17.0 80 2.2 SSE 33 39 18 21 1017.9 1017.7 0.2
23/03:00pm 20.6 18.3 17.6 83 1.8 SSE 26 33 14 18 1017.9 1017.7 0.2
23/02:30pm 20.5 17.1 17.7 84 1.7 SSE 32 37 17 20 1018.0 1017.8 0.2
23/02:00pm 20.7 17.4 17.9 84 1.7 SSE 32 41 17 22 1018.0 1017.8 0.2
23/01:30pm 20.7 16.5 18.1 85 1.6 SSE 37 41 20 22 1018.2 1018.1 0.2
23/01:00pm 20.7 17.0 18.3 86 1.5 SSE 35 43 19 23 1018.6 1018.4 0.2
23/12:30pm 20.7 16.5 18.1 85 1.6 SSE 37 46 20 25 1019.0 1018.8 0.0
23/12:00pm 21.2 17.6 17.6 80 2.2 SSE 33 41 18 22 1019.6 1019.4 0.0
23/11:44am 21.6 19.4 18.6 83 1.9 SSE 28 35 15 19 1019.8 1019.6 0.0
23/11:30am 20.9 18.2 18.5 86 1.5 SSE 30 35 16 19 1020.1 1019.9 0.0
23/11:24am 20.7 18.0 18.5 87 1.4 SSE 30 35 16 19 1020.2 1020.0 0.0
23/11:09am 20.7 18.4 18.5 87 1.4 SSE 28 37 15 20 1020.4 1020.2 0.0
23/11:00am 20.5 17.4 18.3 87 1.4 SSE 32 39 17 21 1020.5 1020.3 0.0
23/10:30am 20.4 17.6 18.2 87 1.4 SSE 30 39 16 21 1020.7 1020.5 0.0
23/10:00am 20.1 16.3 18.1 88 1.2 SSE 35 43 19 23 1020.7 1020.5 0.0
23/09:52am 20.4 16.3 18.2 87 1.4 SSE 37 44 20 24 1020.8 1020.6 0.0
23/09:30am 20.7 15.9 18.3 86 1.5 SSE 41 48 22 26 1020.8 1020.6 0.0
23/09:05am 20.3 16.5 18.1 87 1.4 SSE 35 44 19 24 1020.8 1020.6 0.0
23/09:00am 20.2 16.3 17.8 86 1.5 SSE 35 44 19 24 1020.6 1020.4 0.4
23/08:30am 20.4 17.0 17.6 84 1.7 SSE 32 39 17 21 1020.5 1020.3 0.4
23/08:00am 19.6 16.2 17.7 89 1.2 SSE 32 39 17 21 1020.4 1020.2 0.4
23/07:30am 19.4 16.4 17.7 90 1.0 SSE 30 39 16 21 1020.2 1020.0 0.4
23/07:00am 19.2 15.6 17.7 91 0.9 SSE 33 41 18 22 1019.8 1019.6 0.4
23/06:50am 19.1 15.1 17.6 91 0.9 SSE 35 44 19 24 1019.8 1019.6 0.4
23/06:30am 19.3 16.8 18.0 92 0.8 SSE 28 37 15 20 1019.6 1019.4 0.4
23/06:23am 19.2 16.9 17.7 91 0.9 SSE 26 32 14 17 1019.7 1019.5 0.4
23/06:00am 19.4 16.7 17.5 89 1.2 SSE 28 35 15 19 1019.5 1019.3 0.4
23/05:30am 19.4 16.6 17.4 88 1.2 SSE 28 35 15 19 1019.4 1019.2 0.4
23/05:00am 19.4 16.5 17.0 86 1.5 S 28 35 15 19 1019.3 1019.1 0.4
23/04:30am 19.3 17.6 17.3 88 1.2 S 22 28 12 15 1019.2 1019.0 0.4
23/04:00am 19.1 17.0 17.1 88 1.2 S 24 30 13 16 1019.1 1018.9 0.4
23/03:30am 19.2 17.1 17.2 88 1.2 SSE 24 30 13 16 1019.3 1019.1 0.4
23/03:00am 19.3 16.4 17.1 87 1.3 SSE 28 33 15 18 1019.5 1019.3 0.4
23/02:30am 19.8 16.4 17.8 88 1.2 SSE 32 37 17 20 1019.6 1019.4 0.4
23/02:00am 19.9 16.1 18.0 89 1.2 SSE 35 39 19 21 1019.8 1019.6 0.4
23/01:30am 19.9 15.3 18.0 89 1.2 SSE 39 43 21 23 1020.1 1019.9 0.4
23/01:00am 20.0 16.9 18.3 90 1.1 SSE 32 39 17 21 1020.3 1020.1 0.4
23/12:30am 20.1 17.0 18.4 90 1.1 SSE 32 37 17 20 1020.5 1020.3 0.4
23/12:22am 20.0 15.8 18.1 89 1.2 SSE 37 43 20 23 1020.5 1020.3 0.4
23/12:00am 19.8 17.5 18.5 92 0.8 SSE 28 39 15 21 1020.7 1020.5 0.4
 
Date/Time
EST
Temp
°C
App
Temp
°C
Dew
Point
°C
Rel
Hum
%
Delta-T
°C
Wind Press
QNH
hPa
Press
MSL
hPa
Rain since
9am
mm
Dir  Spd
km/h
Gust
km/h
Spd
kts
Gust
kts
22/11:51pm 19.4 18.0 17.9 91 0.9 SSE 22 30 12 16 1020.8 1020.6 0.2
22/11:30pm 20.2 17.4 18.1 88 1.3 SSE 30 35 16 19 1021.0 1020.8 0.0
22/11:00pm 20.4 18.6 17.8 85 1.6 SSE 24 32 13 17 1021.3 1021.1 0.0
22/10:30pm 20.6 16.9 17.0 80 2.2 SE 32 37 17 20 1021.5 1021.3 0.0
22/10:00pm 20.4 17.0 16.8 80 2.2 SE 30 33 16 18 1021.7 1021.5 0.0
22/09:30pm 20.4 17.3 17.4 83 1.8 SE 30 33 16 18 1021.7 1021.5 0.0
22/09:00pm 20.5 17.6 17.9 85 1.6 SE 30 35 16 19 1021.8 1021.6 0.0
22/08:30pm 20.2 16.8 17.6 85 1.6 SE 32 35 17 19 1021.7 1021.5 0.0
22/08:00pm 20.1 16.6 17.5 85 1.6 SE 32 35 17 19 1021.6 1021.4 0.0
22/07:30pm 20.0 16.9 17.4 85 1.6 SE 30 33 16 18 1021.3 1021.1 0.0
22/07:00pm 20.0 16.0 16.8 82 1.9 SE 33 37 18 20 1021.0 1020.8 0.0
22/06:30pm 19.8 15.6 16.1 79 2.2 SE 33 37 18 20 1020.6 1020.4 0.0
22/06:00pm 19.9 15.5 15.7 77 2.5 SE 33 39 18 21 1020.4 1020.2 0.0
22/05:30pm 20.0 15.4 16.0 78 2.4 SE 35 41 19 22 1020.3 1020.1 0.0
22/05:00pm 20.1 15.1 16.1 78 2.4 SE 37 43 20 23 1020.2 1020.0 0.0
22/04:30pm 20.3 15.2 15.7 75 2.7 SE 37 44 20 24 1020.0 1019.8 0.0
22/04:00pm 20.4 15.2 15.6 74 2.9 SSE 37 44 20 24 1019.9 1019.7 0.0
22/03:30pm 20.6 14.0 14.9 70 3.4 SSE 43 48 23 26 1019.8 1019.6 0.0
22/03:00pm 20.7 14.5 15.0 70 3.4 SSE 41 46 22 25 1019.6 1019.4 0.0
22/02:30pm 20.9 14.9 15.4 71 3.3 SSE 41 46 22 25 1019.9 1019.7 0.0
22/02:00pm 21.0 14.8 15.8 72 3.1 SSE 43 50 23 27 1020.2 1020.0 0.0
22/01:30pm 20.8 14.0 15.8 73 3.0 SSE 46 52 25 28 1020.4 1020.2 0.0
22/01:00pm 20.9 15.2 16.3 75 2.8 SSE 41 50 22 27 1020.7 1020.5 0.0
22/12:30pm 21.3 15.2 16.3 73 3.0 SSE 43 50 23 27 1021.1 1020.9 0.0
22/12:00pm 20.8 16.1 16.8 78 2.4 SSE 37 46 20 25 1021.7 1021.5 0.0
22/11:30am 20.5 15.7 16.7 79 2.3 SSE 37 46 20 25 1022.0 1021.8 0.0
22/11:00am 20.3 15.6 16.9 81 2.1 SSE 37 46 20 25 1022.4 1022.2 0.0
22/10:30am 20.3 14.9 15.9 76 2.6 SSE 39 46 21 25 1022.5 1022.3 0.0
22/10:00am 21.3 17.5 16.7 75 2.8 SSE 32 39 17 21 1022.6 1022.4 0.0
22/09:30am 20.9 17.0 16.5 76 2.7 SSE 32 41 17 22 1022.6 1022.4 0.0
22/09:00am 20.5 16.2 15.5 73 3.0 SSE 32 37 17 20 1022.5 1022.3 0.0
22/08:30am 21.2 18.0 16.4 74 2.9 SSE 28 32 15 17 1022.1 1021.9 0.0
22/08:00am 20.6 17.4 16.2 76 2.6 SSE 28 33 15 18 1022.0 1021.8 0.0
22/07:30am 20.1 15.9 15.7 76 2.6 SSE 32 37 17 20 1021.7 1021.5 0.0
22/07:00am 19.7 15.6 16.0 79 2.2 SSE 32 39 17 21 1021.4 1021.2 0.0

Other Formats:

Comma delimited format used in spreadsheet applications
http://www.bom.gov.au/fwo/IDQ60801/IDQ60801.94368.axf

JavaScript Object Notation format (JSON) in row-major order
http://www.bom.gov.au/fwo/IDQ60801/IDQ60801.94368.json